createdAt,value
2019-03-08T00:00:19.257Z,1.63
2019-03-08T00:02:45.806Z,1.50
2019-03-08T00:05:12.283Z,1.43
2019-03-08T00:07:38.752Z,1.33
2019-03-08T00:10:05.371Z,1.30
2019-03-08T00:12:31.875Z,1.03
2019-03-08T00:14:58.339Z,1.53
2019-03-08T00:17:24.827Z,1.83
2019-03-08T00:19:51.342Z,1.50
2019-03-08T00:22:17.863Z,1.37
2019-03-08T00:24:44.537Z,1.63
2019-03-08T00:27:11.091Z,1.50
2019-03-08T00:29:37.473Z,1.27
2019-03-08T00:32:03.951Z,1.00
2019-03-08T00:34:30.297Z,1.33
2019-03-08T00:36:56.758Z,1.20
2019-03-08T00:39:23.103Z,1.10
2019-03-08T00:41:49.975Z,1.27
2019-03-08T00:44:16.446Z,1.00
2019-03-08T00:46:42.830Z,1.30
2019-03-08T00:49:09.286Z,1.10
2019-03-08T00:51:35.851Z,1.20
2019-03-08T00:54:02.309Z,1.40
2019-03-08T00:56:28.898Z,1.00
2019-03-08T00:58:55.487Z,1.23
2019-03-08T01:01:22.062Z,0.90
2019-03-08T01:03:48.540Z,1.30
2019-03-08T01:06:15.203Z,1.13
2019-03-08T01:08:41.653Z,0.87
2019-03-08T01:11:08.043Z,1.30
2019-03-08T01:13:34.434Z,1.57
2019-03-08T01:16:00.892Z,1.10
2019-03-08T01:18:27.660Z,1.30
2019-03-08T01:20:54.168Z,1.00
2019-03-08T01:23:20.744Z,1.10
2019-03-08T01:25:47.090Z,1.23
2019-03-08T01:28:13.979Z,1.17
2019-03-08T01:30:40.448Z,1.23
2019-03-08T01:33:06.907Z,0.83
2019-03-08T01:35:33.670Z,0.90
2019-03-08T01:38:00.554Z,1.07
2019-03-08T01:40:27.635Z,0.80
2019-03-08T01:42:54.336Z,0.90
2019-03-08T01:45:20.800Z,0.83
2019-03-08T01:47:47.337Z,0.77
2019-03-08T01:50:13.855Z,0.60
2019-03-08T01:52:40.457Z,0.60
2019-03-08T01:55:07.111Z,0.73
2019-03-08T01:57:33.527Z,0.70
2019-03-08T02:00:00.114Z,0.60
2019-03-08T02:02:26.748Z,0.80
2019-03-08T02:04:53.295Z,0.70
2019-03-08T02:07:19.667Z,0.60
2019-03-08T02:09:46.419Z,0.80
2019-03-08T02:12:12.892Z,0.50
2019-03-08T02:14:39.334Z,0.93
2019-03-08T02:17:05.712Z,1.30
2019-03-08T02:19:32.282Z,0.90
2019-03-08T02:21:58.883Z,0.70
2019-03-08T02:24:25.332Z,0.80
2019-03-08T02:26:51.782Z,1.40
2019-03-08T02:29:18.291Z,0.83
2019-03-08T02:31:44.851Z,0.60
2019-03-08T02:34:11.320Z,0.80
2019-03-08T02:36:37.876Z,1.47
2019-03-08T02:39:04.472Z,0.93
2019-03-08T02:41:30.823Z,0.80
2019-03-08T02:43:57.295Z,0.80
2019-03-08T02:46:23.942Z,0.90
2019-03-08T02:48:50.411Z,1.00
2019-03-08T02:51:16.859Z,0.97
2019-03-08T02:53:43.231Z,0.93
2019-03-08T02:56:09.581Z,0.60
2019-03-08T02:58:36.055Z,0.90
2019-03-08T03:01:02.795Z,0.80
2019-03-08T03:03:29.502Z,0.87
2019-03-08T03:05:55.875Z,0.90
2019-03-08T03:08:22.331Z,0.90
2019-03-08T03:10:48.805Z,0.80
2019-03-08T03:13:15.255Z,1.20
2019-03-08T03:15:41.758Z,0.70
2019-03-08T03:18:08.215Z,0.80
2019-03-08T03:20:34.884Z,0.80
2019-03-08T03:23:01.363Z,0.87
2019-03-08T03:25:27.923Z,0.67
2019-03-08T03:27:54.470Z,0.80
2019-03-08T03:30:20.971Z,0.77
2019-03-08T03:32:47.620Z,0.70
2019-03-08T03:35:13.991Z,0.70
2019-03-08T03:37:40.437Z,0.93
2019-03-08T03:40:08.713Z,1.10
2019-03-08T03:42:35.164Z,0.80
2019-03-08T03:45:01.631Z,0.97
2019-03-08T03:47:27.974Z,1.00
2019-03-08T03:49:54.361Z,0.50
2019-03-08T03:52:20.803Z,0.83
2019-03-08T03:54:47.267Z,0.57
2019-03-08T03:57:13.831Z,0.80
2019-03-08T03:59:40.323Z,0.87
2019-03-08T04:02:06.794Z,1.00
2019-03-08T04:04:33.250Z,0.80
2019-03-08T04:06:59.721Z,0.93
2019-03-08T04:09:26.274Z,1.03
2019-03-08T04:11:52.655Z,0.90
2019-03-08T04:14:19.298Z,1.13
2019-03-08T04:16:45.779Z,1.10
2019-03-08T04:19:12.155Z,1.00
2019-03-08T04:21:38.666Z,0.70
2019-03-08T04:24:05.102Z,0.90
2019-03-08T04:26:31.686Z,0.70
2019-03-08T04:28:58.223Z,0.70
2019-03-08T04:31:24.603Z,0.90
2019-03-08T04:33:51.098Z,0.63
2019-03-08T04:36:17.575Z,1.10
2019-03-08T04:38:44.030Z,0.90
2019-03-08T04:41:10.403Z,1.10
2019-03-08T04:43:36.852Z,0.90
2019-03-08T04:46:03.351Z,0.80
2019-03-08T04:48:29.730Z,0.90
2019-03-08T04:50:56.275Z,1.10
2019-03-08T04:53:22.774Z,1.20
2019-03-08T04:55:49.235Z,1.00
2019-03-08T04:58:15.739Z,1.00
2019-03-08T05:00:42.119Z,0.90
2019-03-08T05:03:08.587Z,0.70
2019-03-08T05:05:35.034Z,1.00
2019-03-08T05:08:01.807Z,1.03
2019-03-08T05:10:28.251Z,0.90
2019-03-08T05:12:54.728Z,0.90
2019-03-08T05:15:21.175Z,0.90
2019-03-08T05:17:47.772Z,0.90
2019-03-08T05:20:14.228Z,0.83
2019-03-08T05:22:40.702Z,0.73
2019-03-08T05:25:08.163Z,1.57
2019-03-08T05:27:34.539Z,0.80
2019-03-08T05:30:01.176Z,0.90
2019-03-08T05:32:27.836Z,0.93
2019-03-08T05:34:54.345Z,0.70
2019-03-08T05:37:20.850Z,0.80
2019-03-08T05:39:47.314Z,1.00
2019-03-08T05:42:13.763Z,0.70
2019-03-08T05:44:40.643Z,1.30
2019-03-08T05:47:07.199Z,0.90
2019-03-08T05:49:33.671Z,0.80
2019-03-08T05:52:00.045Z,1.10
2019-03-08T05:54:26.610Z,0.80
2019-03-08T05:56:53.162Z,0.80
2019-03-08T05:59:19.555Z,1.10
2019-03-08T06:01:46.044Z,1.00
2019-03-08T06:04:12.409Z,1.07
2019-03-08T06:06:38.763Z,1.20
2019-03-08T06:09:05.837Z,0.93
2019-03-08T06:11:32.179Z,1.20
2019-03-08T06:13:58.554Z,1.07
2019-03-08T06:16:25.006Z,1.40
2019-03-08T06:18:51.494Z,1.20
2019-03-08T06:21:18.069Z,1.20
2019-03-08T06:23:44.641Z,1.10
2019-03-08T06:26:10.987Z,1.20
2019-03-08T06:28:37.435Z,1.00
2019-03-08T06:31:03.899Z,1.37
2019-03-08T06:33:30.275Z,1.10
2019-03-08T06:35:56.650Z,1.23
2019-03-08T06:38:23.194Z,1.07
2019-03-08T06:40:49.974Z,1.07
2019-03-08T06:43:16.312Z,1.20
2019-03-08T06:45:42.680Z,1.33
2019-03-08T06:48:09.026Z,1.70
2019-03-08T06:50:35.509Z,1.20
2019-03-08T06:53:01.958Z,1.23
2019-03-08T06:55:28.428Z,1.40
2019-03-08T06:57:56.691Z,1.13
2019-03-08T07:00:25.100Z,1.17
2019-03-08T07:02:51.455Z,1.13
2019-03-08T07:05:18.026Z,1.90
2019-03-08T07:07:44.474Z,1.50
2019-03-08T07:10:10.942Z,1.23
2019-03-08T07:12:37.297Z,1.23
2019-03-08T07:15:04.459Z,1.20
2019-03-08T07:17:31.207Z,1.43
2019-03-08T07:20:02.125Z,1.20
2019-03-08T07:22:30.487Z,1.20
2019-03-08T07:24:58.903Z,1.20
2019-03-08T07:27:27.259Z,1.20
2019-03-08T07:29:55.627Z,1.23
2019-03-08T07:32:23.991Z,1.30
2019-03-08T07:34:52.267Z,1.50
2019-03-08T07:37:23.418Z,1.10
2019-03-08T07:39:51.813Z,0.90
2019-03-08T07:42:20.154Z,0.80
2019-03-08T07:44:48.422Z,1.23
2019-03-08T07:47:17.166Z,0.67
2019-03-08T07:49:45.555Z,1.10
2019-03-08T07:52:13.799Z,2.20
2019-03-08T07:54:54.124Z,1.00
2019-03-08T07:57:22.370Z,1.10
2019-03-08T07:59:54.063Z,0.90
2019-03-08T08:02:21.335Z,1.03
2019-03-08T08:04:49.737Z,1.00
2019-03-08T08:07:18.087Z,1.00
2019-03-08T08:09:46.334Z,1.10
2019-03-08T08:12:17.526Z,0.97
2019-03-08T08:14:45.874Z,1.20
2019-03-08T08:17:14.267Z,0.90
2019-03-08T08:19:42.618Z,1.00
2019-03-08T08:22:12.268Z,1.00
2019-03-08T08:24:40.814Z,0.77
2019-03-08T08:27:09.307Z,0.70
2019-03-08T08:29:39.555Z,0.90
2019-03-08T08:32:07.951Z,0.90
2019-03-08T08:34:36.304Z,1.23
2019-03-08T08:37:04.572Z,1.33
2019-03-08T08:39:32.822Z,0.87
2019-03-08T08:42:01.215Z,0.73
2019-03-08T08:44:29.658Z,0.93
2019-03-08T08:46:58.022Z,0.80
2019-03-08T08:49:26.283Z,1.23
2019-03-08T08:51:54.723Z,0.90
2019-03-08T08:54:22.350Z,0.93
2019-03-08T08:56:50.947Z,0.90
2019-03-08T09:09:42.726Z,0.80
2019-03-08T09:17:11.122Z,0.80
2019-03-08T09:19:39.374Z,1.20
2019-03-08T09:22:08.068Z,1.07
2019-03-08T09:24:36.236Z,0.97
2019-03-08T09:27:04.730Z,0.80
2019-03-08T09:29:41.004Z,0.77
2019-03-08T09:32:03.371Z,1.20
2019-03-08T09:34:31.616Z,0.87
2019-03-08T09:36:59.308Z,1.17
2019-03-08T09:39:27.761Z,0.77
2019-03-08T09:41:56.127Z,1.10
2019-03-08T09:44:24.471Z,0.90
2019-03-08T09:46:54.705Z,1.17
2019-03-08T09:49:21.088Z,0.63
2019-03-08T09:51:52.215Z,0.90
2019-03-08T09:54:20.567Z,1.00
2019-03-08T09:56:48.958Z,1.27
2019-03-08T09:59:17.260Z,1.10
2019-03-08T10:01:46.480Z,0.90
2019-03-08T10:04:14.719Z,0.70
2019-03-08T10:06:45.990Z,0.93
2019-03-08T10:09:14.245Z,0.90
2019-03-08T10:11:42.511Z,1.20
2019-03-08T10:14:11.223Z,1.20
2019-03-08T10:16:39.892Z,0.70
2019-03-08T10:19:08.284Z,0.73
2019-03-08T10:21:36.595Z,1.00
2019-03-08T10:24:04.880Z,1.10
2019-03-08T10:26:31.263Z,0.97
2019-03-08T10:28:58.626Z,1.07
2019-03-08T10:31:26.925Z,0.57
2019-03-08T10:33:55.187Z,0.70
2019-03-08T10:36:23.739Z,0.90
2019-03-08T10:38:52.038Z,1.00
2019-03-08T10:41:20.283Z,0.90
2019-03-08T10:43:48.615Z,0.80
2019-03-08T10:46:15.889Z,0.93
2019-03-08T10:48:44.342Z,0.70
2019-03-08T10:51:13.091Z,0.90
2019-03-08T10:54:00.432Z,0.90
2019-03-08T10:56:23.615Z,1.03
2019-03-08T10:58:52.052Z,0.77
2019-03-08T11:01:20.323Z,1.10
2019-03-08T11:03:49.027Z,0.70
2019-03-08T11:06:17.284Z,0.87
2019-03-08T11:08:45.613Z,1.20
2019-03-08T11:11:12.967Z,0.50
2019-03-08T11:13:43.566Z,0.77
2019-03-08T11:16:11.411Z,1.40
2019-03-08T11:18:39.998Z,0.80
2019-03-08T11:21:08.263Z,1.20
2019-03-08T11:23:42.462Z,0.90
2019-03-08T11:26:10.645Z,0.87
2019-03-08T11:28:39.039Z,0.93
2019-03-08T11:31:07.290Z,0.70
2019-03-08T11:33:35.585Z,1.03
2019-03-08T11:36:03.939Z,0.70
2019-03-08T11:38:32.318Z,1.00
2019-03-08T11:41:03.534Z,0.88
2019-03-08T11:43:31.808Z,0.88
2019-03-08T11:46:00.058Z,1.10
2019-03-08T11:48:28.345Z,0.70
2019-03-08T11:50:56.625Z,1.10
2019-03-08T11:53:24.902Z,1.27
2019-03-08T11:55:53.286Z,0.90
2019-03-08T11:58:19.747Z,0.87
2019-03-08T12:00:48.107Z,0.90
2019-03-08T12:03:16.391Z,0.83
2019-03-08T12:05:44.643Z,0.90
2019-03-08T12:08:12.921Z,1.10
2019-03-08T12:10:44.207Z,0.85
2019-03-08T12:13:12.523Z,0.93
2019-03-08T12:15:41.088Z,0.88
2019-03-08T12:18:09.343Z,0.80
2019-03-08T12:20:37.741Z,0.60
2019-03-08T12:23:06.007Z,0.85
2019-03-08T12:25:33.442Z,0.95
2019-03-08T12:28:13.547Z,1.25
2019-03-08T12:30:41.867Z,0.75
2019-03-08T12:33:08.286Z,0.90
2019-03-08T12:35:36.562Z,0.78
2019-03-08T12:38:04.907Z,1.22
2019-03-08T12:40:33.302Z,0.93
2019-03-08T12:43:08.119Z,0.80
2019-03-08T12:45:31.872Z,0.82
2019-03-08T12:48:00.139Z,1.15
2019-03-08T12:50:28.643Z,1.02
2019-03-08T12:52:56.896Z,0.70
2019-03-08T12:55:25.172Z,0.70
2019-03-08T12:57:56.659Z,0.75
2019-03-08T13:00:25.086Z,0.85
2019-03-08T13:02:53.348Z,0.78
2019-03-08T13:05:21.630Z,0.90
2019-03-08T13:07:47.989Z,0.82
2019-03-08T13:10:15.861Z,0.93
2019-03-08T13:12:42.734Z,1.00
2019-03-08T13:15:10.710Z,0.97
2019-03-08T13:17:37.059Z,1.07
2019-03-08T13:20:05.343Z,1.23
2019-03-08T13:22:31.703Z,1.13
2019-03-08T13:24:58.209Z,1.00
2019-03-08T13:27:24.691Z,1.30
2019-03-08T13:29:51.443Z,0.90
2019-03-08T13:32:17.919Z,1.30
2019-03-08T13:34:44.273Z,1.17
2019-03-08T13:37:10.655Z,1.40
2019-03-08T13:39:37.106Z,1.35
2019-03-08T13:42:03.768Z,1.33
2019-03-08T13:44:30.215Z,1.13
2019-03-08T13:46:56.579Z,1.20
2019-03-08T13:49:22.951Z,1.23
2019-03-08T13:51:49.418Z,1.00
2019-03-08T13:54:15.775Z,1.37
2019-03-08T13:56:42.149Z,1.60
2019-03-08T13:59:08.535Z,1.23
2019-03-08T14:01:34.924Z,0.90
2019-03-08T14:04:01.365Z,1.20
2019-03-08T14:06:28.073Z,1.07
2019-03-08T14:08:54.535Z,1.43
2019-03-08T14:11:20.912Z,1.27
2019-03-08T14:13:47.373Z,1.20
2019-03-08T14:16:13.731Z,1.63
2019-03-08T14:18:40.083Z,1.30
2019-03-08T14:21:06.473Z,1.37
2019-03-08T14:23:33.259Z,1.30
2019-03-08T14:25:59.754Z,1.20
2019-03-08T14:28:26.163Z,1.00
2019-03-08T14:30:57.817Z,1.50
2019-03-08T14:33:22.785Z,1.80
2019-03-08T14:35:49.231Z,0.67
2019-03-08T14:38:15.728Z,0.90
2019-03-08T14:40:45.601Z,1.10
2019-03-08T14:43:16.954Z,1.10
2019-03-08T14:45:45.959Z,1.10
2019-03-08T14:48:12.499Z,1.20
2019-03-08T14:50:38.842Z,1.30
2019-03-08T14:53:05.280Z,1.40
2019-03-08T14:55:31.819Z,1.40
2019-03-08T14:57:59.010Z,1.93
2019-03-08T15:00:28.994Z,1.47
2019-03-08T15:02:54.996Z,1.50
2019-03-08T15:05:21.551Z,1.20
2019-03-08T15:07:48.131Z,1.20
2019-03-08T15:10:15.792Z,1.10
2019-03-08T15:12:49.366Z,1.33
2019-03-08T15:15:11.581Z,0.83
2019-03-08T15:17:39.078Z,1.37
2019-03-08T15:20:14.847Z,1.53
2019-03-08T15:22:38.083Z,1.50
2019-03-08T15:25:08.413Z,2.30
2019-03-08T15:27:35.159Z,1.37
2019-03-08T15:30:01.836Z,1.50
2019-03-08T15:32:28.191Z,1.67
2019-03-08T15:34:54.563Z,1.30
2019-03-08T15:37:21.021Z,1.50
2019-03-08T15:39:47.869Z,1.70
2019-03-08T15:42:14.419Z,1.70
2019-03-08T15:44:40.807Z,1.30
2019-03-08T15:47:13.546Z,1.63
2019-03-08T15:49:35.751Z,1.17
2019-03-08T15:52:03.679Z,1.10
2019-03-08T15:54:30.573Z,1.23
2019-03-08T15:56:57.119Z,1.40
2019-03-08T15:59:23.560Z,1.60
2019-03-08T16:01:50.087Z,2.20
2019-03-08T16:04:16.559Z,1.80
2019-03-08T16:06:44.035Z,2.00
2019-03-08T16:09:11.282Z,1.90
2019-03-08T16:11:37.792Z,2.20
2019-03-08T16:14:08.779Z,1.90
2019-03-08T16:16:32.443Z,1.60
2019-03-08T16:18:58.894Z,2.10
2019-03-08T16:21:25.471Z,1.50
2019-03-08T16:23:52.141Z,1.67
2019-03-08T16:26:21.388Z,1.80
2019-03-08T16:28:47.156Z,1.90
2019-03-08T16:31:15.527Z,2.20
2019-03-08T16:33:43.885Z,1.70
2019-03-08T16:36:10.380Z,1.93
2019-03-08T16:38:38.737Z,2.70
2019-03-08T16:41:07.235Z,1.97
2019-03-08T16:43:35.587Z,2.53
2019-03-08T16:46:03.964Z,1.77
2019-03-08T16:48:32.333Z,2.30
2019-03-08T16:51:01.434Z,2.13
2019-03-08T16:53:30.075Z,1.80
2019-03-08T16:56:01.267Z,2.00
2019-03-08T16:58:31.307Z,1.20
2019-03-08T17:00:59.731Z,1.60
2019-03-08T17:03:28.087Z,1.27
2019-03-08T17:05:56.675Z,1.23
2019-03-08T17:08:24.936Z,2.03
2019-03-08T17:10:53.312Z,1.60
2019-03-08T17:13:21.576Z,1.50
2019-03-08T17:15:49.935Z,1.47
2019-03-08T17:18:18.252Z,1.57
2019-03-08T17:20:46.570Z,1.60
2019-03-08T17:23:14.862Z,1.40
2019-03-08T17:25:43.136Z,1.70
2019-03-08T17:28:11.431Z,2.07
2019-03-08T17:30:39.678Z,1.80
2019-03-08T17:33:08.185Z,1.57
2019-03-08T17:35:36.439Z,2.20
2019-03-08T17:38:04.819Z,2.70
2019-03-08T17:40:33.066Z,2.80
2019-03-08T17:43:01.323Z,2.67
2019-03-08T17:45:29.573Z,2.77
2019-03-08T17:47:57.974Z,2.07
2019-03-08T17:50:26.324Z,2.60
2019-03-08T17:52:54.616Z,2.27
2019-03-08T17:55:22.866Z,2.20
2019-03-08T17:57:51.159Z,2.90
2019-03-08T18:00:19.753Z,2.97
2019-03-08T18:02:48.055Z,2.07
2019-03-08T18:05:16.307Z,2.30
2019-03-08T18:07:44.623Z,2.60
2019-03-08T18:10:13.038Z,2.50
2019-03-08T18:12:44.191Z,3.03
2019-03-08T18:15:12.582Z,3.83
2019-03-08T18:17:40.885Z,4.97
2019-03-08T18:20:09.148Z,6.00
2019-03-08T18:22:37.405Z,7.13
2019-03-08T18:25:05.888Z,5.27
2019-03-08T18:27:34.135Z,4.40
2019-03-08T18:30:02.423Z,3.53
2019-03-08T18:32:30.790Z,2.80
2019-03-08T18:34:59.083Z,2.40
2019-03-08T18:37:27.438Z,4.57
2019-03-08T18:39:55.927Z,4.30
2019-03-08T18:42:24.175Z,3.97
2019-03-08T18:44:52.585Z,3.80
2019-03-08T18:47:20.839Z,2.70
2019-03-08T18:49:49.191Z,2.90
2019-03-08T18:52:17.515Z,4.13
2019-03-08T18:54:45.846Z,3.50
2019-03-08T18:57:14.127Z,3.53
2019-03-08T18:59:42.651Z,3.70
2019-03-08T19:02:10.909Z,2.90
2019-03-08T19:04:39.179Z,2.83
2019-03-08T19:07:07.478Z,2.77
2019-03-08T19:09:35.921Z,2.97
2019-03-08T19:12:04.261Z,2.57
2019-03-08T19:14:34.516Z,3.27
2019-03-08T19:17:02.802Z,3.10
2019-03-08T19:19:31.450Z,3.17
2019-03-08T19:21:58.050Z,2.87
2019-03-08T19:24:28.974Z,3.03
2019-03-08T19:26:57.375Z,3.13
2019-03-08T19:29:25.627Z,2.90
2019-03-08T19:31:53.131Z,3.73
2019-03-08T19:34:21.486Z,3.70
2019-03-08T19:36:49.917Z,3.80
2019-03-08T19:39:18.327Z,3.60
2019-03-08T19:41:46.607Z,3.80
2019-03-08T19:44:14.959Z,4.10
2019-03-08T19:46:43.350Z,4.40
2019-03-08T19:49:09.826Z,3.80
2019-03-08T19:51:38.102Z,4.03
2019-03-08T19:54:06.487Z,3.50
2019-03-08T19:56:34.879Z,4.03
2019-03-08T19:59:03.177Z,4.03
2019-03-08T20:01:31.620Z,3.67
2019-03-08T20:03:59.863Z,3.87
2019-03-08T20:06:28.225Z,3.90
2019-03-08T20:08:54.663Z,4.30
2019-03-08T20:11:23.002Z,4.67
2019-03-08T20:13:51.581Z,3.90
2019-03-08T20:16:19.820Z,4.00
2019-03-08T20:18:48.211Z,3.87
2019-03-08T20:21:16.462Z,4.83
2019-03-08T20:23:44.825Z,4.47
2019-03-08T20:26:13.136Z,4.57
2019-03-08T20:28:44.387Z,5.67
2019-03-08T20:31:11.851Z,5.73
2019-03-08T20:33:40.288Z,5.00
2019-03-08T20:36:06.635Z,5.23
2019-03-08T20:38:34.970Z,5.73
2019-03-08T20:41:03.206Z,5.93
2019-03-08T20:43:31.610Z,5.97
2019-03-08T20:45:59.960Z,6.20
2019-03-08T20:48:26.346Z,6.23
2019-03-08T20:50:52.795Z,6.40
2019-03-08T20:53:19.399Z,6.93
2019-03-08T20:55:45.901Z,7.20
2019-03-08T20:58:12.239Z,8.70
2019-03-08T21:00:38.847Z,7.90
2019-03-08T21:03:05.220Z,7.43
2019-03-08T21:05:31.614Z,5.80
2019-03-08T21:07:57.979Z,6.03
2019-03-08T21:10:24.594Z,6.87
2019-03-08T21:12:50.923Z,6.57
2019-03-08T21:15:24.949Z,7.80
2019-03-08T21:17:45.937Z,9.40
2019-03-08T21:20:12.606Z,9.13
2019-03-08T21:22:40.091Z,8.57
2019-03-08T21:25:08.466Z,9.10
2019-03-08T21:27:35.092Z,8.73
2019-03-08T21:30:01.702Z,8.87
2019-03-08T21:32:28.098Z,9.13
2019-03-08T21:34:54.702Z,8.67
2019-03-08T21:37:21.080Z,7.70
2019-03-08T21:39:47.601Z,7.53
2019-03-08T21:42:14.339Z,6.83
2019-03-08T21:44:40.752Z,8.03
2019-03-08T21:47:07.354Z,7.77
2019-03-08T21:49:33.768Z,7.47
2019-03-08T21:52:00.327Z,6.97
2019-03-08T21:54:26.781Z,8.73
2019-03-08T21:56:53.447Z,8.50
2019-03-08T21:59:20.035Z,11.37
2019-03-08T22:01:46.570Z,9.03
2019-03-08T22:04:14.914Z,8.20
2019-03-08T22:06:41.493Z,8.57
2019-03-08T22:09:09.787Z,8.20
2019-03-08T22:11:38.174Z,8.73
2019-03-08T22:14:04.730Z,8.57
2019-03-08T22:16:31.204Z,8.47
2019-03-08T22:18:57.607Z,7.53
2019-03-08T22:21:23.987Z,7.40
2019-03-08T22:23:50.541Z,7.33
2019-03-08T22:26:17.136Z,6.50
2019-03-08T22:28:43.816Z,6.17
2019-03-08T22:31:10.395Z,5.70
2019-03-08T22:33:36.748Z,5.53
2019-03-08T22:36:03.225Z,5.30
2019-03-08T22:38:29.682Z,4.83
2019-03-08T22:40:56.196Z,4.83
2019-03-08T22:43:22.643Z,5.37
2019-03-08T22:45:49.195Z,5.20
2019-03-08T22:48:15.567Z,4.50
2019-03-08T22:50:42.067Z,4.47
2019-03-08T22:53:08.655Z,4.23
2019-03-08T22:55:35.019Z,6.60
2019-03-08T22:58:01.607Z,8.50
2019-03-08T23:00:31.786Z,7.90
2019-03-08T23:02:58.259Z,5.60
2019-03-08T23:05:24.726Z,3.90
2019-03-08T23:07:51.186Z,4.20
2019-03-08T23:10:17.571Z,4.73
2019-03-08T23:12:44.053Z,4.67
2019-03-08T23:15:10.502Z,4.20
2019-03-08T23:17:36.976Z,4.20
2019-03-08T23:20:04.933Z,4.20
2019-03-08T23:22:31.319Z,4.83
2019-03-08T23:24:57.771Z,4.93
2019-03-08T23:27:26.072Z,4.70
2019-03-08T23:29:54.323Z,4.17
2019-03-08T23:32:22.674Z,4.10
2019-03-08T23:34:49.151Z,3.47
2019-03-08T23:37:15.698Z,4.13
2019-03-08T23:39:42.067Z,3.50
2019-03-08T23:42:08.630Z,3.53
2019-03-08T23:44:35.191Z,3.73
2019-03-08T23:47:01.739Z,3.20
2019-03-08T23:49:28.237Z,3.10
2019-03-08T23:51:55.582Z,2.80
2019-03-08T23:54:21.951Z,3.30
2019-03-08T23:56:48.348Z,3.20
2019-03-08T23:59:14.899Z,2.93
